Time;durP1;ratioP1;P1;durP2;ratioP2;P2;SDS_P1;SDS_P2;PMS_P1;PMS_P2;Temp;Humidity;BMP_temperature;BMP_pressure;BME280_temperature;BME280_humidity;BME280_pressure;Samples;Min_cycle;Max_cycle;Signal;HPM_P1;HPM_P2
2022/04/04 00:00:45;;;;;;;1.30;1.20;;;;;;;18.43;35.29;101776.22;5137973;27;20110;-65
2022/04/04 00:03:11;;;;;;;2.20;1.60;;;;;;;18.42;35.00;101774.56;5137943;27;20031;-65
2022/04/04 00:05:37;;;;;;;1.77;1.60;;;;;;;18.43;34.76;101769.91;5137853;27;20038;-66
2022/04/04 00:08:03;;;;;;;1.85;1.75;;;;;;;18.43;34.91;101764.41;5137830;27;20027;-67
2022/04/04 00:10:29;;;;;;;1.70;1.60;;;;;;;18.41;34.75;101768.22;5137827;27;20072;-66
2022/04/04 00:12:54;;;;;;;1.70;1.40;;;;;;;18.40;35.38;101763.81;5119351;27;20035;-66
2022/04/04 00:15:20;;;;;;;1.70;1.50;;;;;;;18.39;34.86;101753.91;5102320;27;20491;-66
2022/04/04 00:17:47;;;;;;;1.83;1.70;;;;;;;18.38;34.92;101752.25;5137770;27;20067;-66
2022/04/04 00:20:13;;;;;;;1.80;1.70;;;;;;;18.39;34.67;101744.81;5137149;27;20038;-66
2022/04/04 00:22:39;;;;;;;1.77;1.67;;;;;;;18.38;34.73;101748.66;5137555;27;20035;-66
2022/04/04 00:25:05;;;;;;;1.70;1.60;;;;;;;18.37;34.76;101738.75;5119262;27;20051;-66
2022/04/04 00:27:30;;;;;;;1.65;1.55;;;;;;;18.36;34.68;101743.41;5137491;27;20381;-66
2022/04/04 00:29:56;;;;;;;1.73;1.63;;;;;;;18.35;34.74;101739.00;5137170;27;20069;-67
2022/04/04 00:32:22;;;;;;;2.08;1.60;;;;;;;18.34;34.51;101731.00;5137404;27;20035;-66
2022/04/04 00:34:47;;;;;;;1.90;1.80;;;;;;;18.35;34.74;101732.66;5137056;27;20394;-66
2022/04/04 00:37:13;;;;;;;1.60;1.50;;;;;;;18.34;34.67;101728.25;5119179;27;20027;-66
2022/04/04 00:39:38;;;;;;;2.72;1.90;;;;;;;18.33;34.63;101730.16;5118886;27;20386;-66
2022/04/04 00:42:04;;;;;;;1.80;1.70;;;;;;;18.32;34.65;101725.75;5136978;27;20038;-65
2022/04/04 00:44:29;;;;;;;1.92;1.77;;;;;;;18.33;34.53;101726.59;5118775;27;20031;-65
2022/04/04 00:46:55;;;;;;;2.20;2.00;;;;;;;18.33;34.49;101718.34;5118743;27;20031;-65
2022/04/04 00:49:21;;;;;;;4.45;2.05;;;;;;;18.30;34.47;101707.84;5101170;27;20054;-65
2022/04/04 00:51:46;;;;;;;1.90;1.80;;;;;;;18.29;34.58;101711.66;5101577;27;20527;-66
2022/04/04 00:54:13;;;;;;;1.90;1.80;;;;;;;18.30;34.38;101710.59;5136670;27;20031;-66
2022/04/04 00:56:38;;;;;;;2.00;1.80;;;;;;;18.29;34.54;101712.53;5136497;27;20035;-66
2022/04/04 00:59:11;;;;;;;2.00;1.80;;;;;;;18.27;34.54;101706.41;5137219;27;20047;-66
2022/04/04 01:01:37;;;;;;;2.05;1.85;;;;;;;18.28;34.45;101702.59;5118407;27;20037;-66
2022/04/04 01:04:03;;;;;;;2.17;1.88;;;;;;;18.27;34.49;101697.34;5136773;27;20035;-65
2022/04/04 01:06:28;;;;;;;2.88;2.00;;;;;;;18.27;34.62;101694.63;5136648;27;20035;-66
2022/04/04 01:08:53;;;;;;;1.88;1.77;;;;;;;18.26;34.39;101691.00;5118258;27;20031;-66
2022/04/04 01:11:19;;;;;;;2.13;1.90;;;;;;;18.25;34.73;101678.38;5136326;27;20031;-66
2022/04/04 01:13:49;;;;;;;2.25;2.05;;;;;;;18.27;34.30;101675.38;5136799;27;20098;-66
2022/04/04 01:16:14;;;;;;;2.78;2.15;;;;;;;18.23;34.03;101669.53;5136501;27;20038;-66
2022/04/04 01:18:41;;;;;;;1.98;1.88;;;;;;;18.23;34.38;101670.38;5136425;27;20367;-66
2022/04/04 01:21:06;;;;;;;2.30;2.10;;;;;;;18.21;34.24;101664.28;5135682;27;20479;-66
2022/04/04 01:23:42;;;;;;;2.22;2.03;;;;;;;18.21;34.11;101663.47;5136356;27;20033;-66
2022/04/04 01:26:09;;;;;;;1.88;1.75;;;;;;;18.21;34.24;101660.72;5136446;27;20027;-65
2022/04/04 01:28:34;;;;;;;3.25;2.30;;;;;;;18.21;34.12;101655.22;5136126;27;20043;-65
2022/04/04 01:31:00;;;;;;;3.10;2.13;;;;;;;18.20;34.01;101642.56;5136126;27;20031;-66
2022/04/04 01:33:25;;;;;;;2.65;1.90;;;;;;;18.19;34.16;101640.91;5136252;27;20111;-66
2022/04/04 01:35:52;;;;;;;2.42;2.10;;;;;;;18.20;34.09;101642.56;5135939;27;20027;-66
2022/04/04 01:38:17;;;;;;;2.08;1.98;;;;;;;18.17;34.04;101626.59;5136013;27;20027;-66
2022/04/04 01:40:42;;;;;;;1.95;1.85;;;;;;;18.15;34.40;101623.25;5136396;27;20031;-66
2022/04/04 01:43:09;;;;;;;2.10;1.90;;;;;;;18.18;33.90;101625.50;5135982;27;20031;-67
2022/04/04 01:48:19;;;;;;;2.42;2.13;;;;;;;18.14;34.11;101605.94;5136022;27;20053;-66
2022/04/04 01:50:44;;;;;;;2.25;2.05;;;;;;;18.16;34.13;101606.53;5135100;27;20106;-66
2022/04/04 01:53:29;;;;;;;2.53;2.33;;;;;;;18.15;33.88;101602.13;5117424;27;20020;-66
2022/04/04 01:55:57;;;;;;;2.13;2.00;;;;;;;18.15;34.03;101595.81;5135763;27;20027;-66
2022/04/04 01:58:23;;;;;;;2.30;2.20;;;;;;;18.14;33.72;101594.94;5135552;27;20119;-66
2022/04/04 02:00:49;;;;;;;3.08;2.30;;;;;;;18.12;34.02;101580.66;5135652;27;20058;-67
2022/04/04 02:03:15;;;;;;;2.25;2.05;;;;;;;18.13;34.01;101578.72;5135607;27;20429;-66
2022/04/04 02:05:40;;;;;;;2.38;2.17;;;;;;;18.13;33.84;101584.22;5135551;27;20084;-66
2022/04/04 02:08:06;;;;;;;3.05;2.25;;;;;;;18.11;33.72;101575.41;5135016;27;20031;-66
2022/04/04 02:10:32;;;;;;;3.15;2.50;;;;;;;18.10;33.66;101571.84;5135664;27;20371;-66
2022/04/04 02:12:58;;;;;;;2.40;2.20;;;;;;;18.10;33.70;101560.84;5135496;27;20118;-66
2022/04/04 02:15:23;;;;;;;2.63;2.35;;;;;;;18.09;33.73;101558.34;5135404;27;20039;-66
2022/04/04 02:17:50;;;;;;;2.38;2.17;;;;;;;18.08;33.38;101562.19;5135394;27;20511;-66
2022/04/04 02:20:16;;;;;;;2.97;2.20;;;;;;;18.08;33.58;101560.25;5135095;27;20031;-66
2022/04/04 02:22:41;;;;;;;2.30;2.10;;;;;;;18.06;33.46;101555.00;5135175;27;20451;-66
2022/04/04 02:25:07;;;;;;;2.25;2.05;;;;;;;18.06;33.47;101543.22;5135233;27;20588;-65
2022/04/04 02:27:32;;;;;;;2.67;2.40;;;;;;;18.08;33.65;101545.69;5135969;27;20042;-66
2022/04/04 02:29:58;;;;;;;2.38;2.17;;;;;;;18.05;33.73;101536.91;5134814;27;20059;-66
2022/04/04 02:32:23;;;;;;;2.30;2.10;;;;;;;18.05;33.55;101536.03;5116788;27;20069;-66
2022/04/04 02:34:49;;;;;;;2.30;2.13;;;;;;;18.04;33.69;101524.22;5134772;27;20506;-66
2022/04/04 02:37:14;;;;;;;2.72;2.42;;;;;;;18.02;33.42;101529.13;5134988;27;20084;-65
2022/04/04 02:39:41;;;;;;;3.40;2.65;;;;;;;18.03;33.58;101522.56;5116680;27;20023;-65
2022/04/04 02:42:07;;;;;;;2.78;2.38;;;;;;;18.01;33.70;101512.91;5116547;27;20039;-65
2022/04/04 02:44:33;;;;;;;2.50;2.30;;;;;;;18.02;33.31;101515.41;5116529;27;20059;-65
2022/04/04 02:46:59;;;;;;;2.28;2.08;;;;;;;18.01;33.57;101512.91;5134926;27;20067;-65
2022/04/04 02:49:25;;;;;;;2.60;2.40;;;;;;;18.01;33.35;101501.91;5134688;27;20485;-65
2022/04/04 02:51:52;;;;;;;2.40;2.20;;;;;;;18.02;33.49;101503.59;5116849;27;20035;-66
2022/04/04 02:54:17;;;;;;;2.58;2.38;;;;;;;18.01;33.25;101493.69;5135026;27;20072;-65
2022/04/04 02:56:43;;;;;;;2.80;2.50;;;;;;;18.00;33.23;101484.63;5116892;28;20459;-65
2022/04/04 02:59:09;;;;;;;2.60;2.40;;;;;;;17.99;33.25;101482.94;5135038;28;20041;-65
2022/04/04 03:01:35;;;;;;;3.47;2.38;;;;;;;18.00;33.42;101470.91;5116411;28;20104;-66
2022/04/04 03:04:02;;;;;;;2.10;2.00;;;;;;;17.98;33.15;101472.22;5134681;28;20034;-66
2022/04/04 03:06:28;;;;;;;2.35;2.15;;;;;;;17.96;33.11;101461.50;5134881;28;20053;-66
2022/04/04 03:08:54;;;;;;;3.20;2.10;;;;;;;17.98;33.09;101458.50;5116301;28;20035;-65
2022/04/04 03:11:19;;;;;;;2.63;2.20;;;;;;;17.98;33.21;101462.09;5134864;28;20031;-65
2022/04/04 03:13:45;;;;;;;2.38;2.10;;;;;;;17.97;33.19;101452.19;5134904;28;20539;-66
2022/04/04 03:16:10;;;;;;;2.40;2.20;;;;;;;17.98;33.32;101455.75;5134627;28;20114;-65
2022/04/04 03:18:37;;;;;;;3.60;2.30;;;;;;;17.97;33.31;101438.47;5134558;27;20418;-66
2022/04/04 03:21:04;;;;;;;3.05;2.58;;;;;;;17.97;33.21;101440.38;5138293;27;20031;-66
2022/04/04 03:23:31;;;;;;;2.67;2.25;;;;;;;17.97;33.48;101438.47;5138648;27;20106;-65
2022/04/04 03:25:56;;;;;;;2.42;2.25;;;;;;;17.98;33.19;101434.63;5120269;27;20036;-65
2022/04/04 03:28:22;;;;;;;2.22;2.03;;;;;;;17.96;33.03;101422.25;5120517;27;20058;-65
2022/04/04 03:30:50;;;;;;;2.38;2.10;;;;;;;17.95;33.03;101429.66;5120215;27;20056;-65
2022/04/04 03:33:16;;;;;;;2.30;2.10;;;;;;;17.95;33.05;101415.94;5138467;27;20054;-65
2022/04/04 03:35:41;;;;;;;2.72;2.03;;;;;;;17.95;33.04;101426.91;5138518;27;20035;-65
2022/04/04 03:38:10;;;;;;;2.22;1.92;;;;;;;17.95;33.21;101412.31;5138396;27;20120;-66
2022/04/04 03:40:37;;;;;;;3.47;2.47;;;;;;;17.94;33.16;101399.69;5120585;27;20031;-65
2022/04/04 03:43:03;;;;;;;2.53;2.33;;;;;;;17.94;33.17;101402.41;5138591;27;20023;-65
2022/04/04 03:45:30;;;;;;;2.25;2.08;;;;;;;17.93;32.80;101387.88;5138380;27;20034;-66
2022/04/04 03:47:56;;;;;;;2.33;2.13;;;;;;;17.93;33.20;101387.88;5103057;27;20039;-66
2022/04/04 03:50:22;;;;;;;2.78;2.35;;;;;;;17.92;32.99;101377.97;5138047;27;20379;-65
2022/04/04 03:52:52;;;;;;;2.30;2.10;;;;;;;17.92;32.98;101377.16;5138185;27;20075;-66
2022/04/04 03:55:19;;;;;;;2.30;2.20;;;;;;;17.90;33.21;101371.91;5119653;27;20029;-66
2022/04/04 03:57:45;;;;;;;2.95;2.25;;;;;;;17.90;32.91;101369.16;5137887;27;20138;-66
2022/04/04 04:00:11;;;;;;;2.40;2.20;;;;;;;17.90;32.81;101368.34;5137989;27;20382;-65
2022/04/04 04:02:40;;;;;;;2.30;2.10;;;;;;;17.90;32.99;101376.59;5119495;27;20088;-65
2022/04/04 04:05:06;;;;;;;1.90;1.80;;;;;;;17.91;33.00;101361.75;5120267;27;20580;-65
2022/04/04 04:07:31;;;;;;;2.03;1.92;;;;;;;17.87;33.03;101344.94;5137866;27;20106;-65
2022/04/04 04:09:57;;;;;;;2.63;2.00;;;;;;;17.89;32.92;101353.75;5137891;27;20037;-65
2022/04/04 04:12:22;;;;;;;2.30;2.10;;;;;;;17.87;33.03;101350.44;5137788;27;20031;-65
2022/04/04 04:14:51;;;;;;;2.17;2.00;;;;;;;17.87;32.80;101347.69;5137877;27;20031;-65
2022/04/04 04:17:21;;;;;;;2.13;1.98;;;;;;;17.88;32.82;101338.38;5137559;27;20039;-65
2022/04/04 04:22:30;;;;;;;2.20;2.05;;;;;;;17.86;32.95;101327.66;5138257;27;20084;-66
2022/04/04 04:24:57;;;;;;;2.58;2.08;;;;;;;17.84;32.94;101321.56;5137505;27;20133;-65
2022/04/04 04:27:22;;;;;;;2.60;2.40;;;;;;;17.86;32.89;101321.31;5137419;27;20063;-65
2022/04/04 04:29:48;;;;;;;2.40;2.20;;;;;;;17.85;32.84;101322.41;5136981;27;20066;-66
2022/04/04 04:32:13;;;;;;;2.05;1.95;;;;;;;17.83;32.97;101319.91;5118973;27;20095;-66
2022/04/04 04:34:39;;;;;;;2.30;2.10;;;;;;;17.84;33.16;101318.00;5118954;27;20035;-66
2022/04/04 04:37:05;;;;;;;2.00;1.80;;;;;;;17.83;32.84;101305.34;5136851;27;20092;-65
2022/04/04 04:39:31;;;;;;;2.55;1.90;;;;;;;17.83;32.76;101297.97;5137297;27;20074;-66
2022/04/04 04:41:56;;;;;;;2.22;2.10;;;;;;;17.83;32.84;101295.22;5136944;27;20451;-67
2022/04/04 04:44:23;;;;;;;2.58;2.30;;;;;;;17.83;32.76;101295.22;5137109;27;20444;-66
2022/04/04 04:46:49;;;;;;;3.03;2.10;;;;;;;17.82;32.95;101279.81;5118363;27;20114;-66
2022/04/04 04:49:16;;;;;;;2.10;1.90;;;;;;;17.82;32.98;101285.31;5137135;27;20058;-66
2022/04/04 04:51:41;;;;;;;2.17;1.98;;;;;;;17.81;33.04;101277.34;5136349;27;20035;-66
2022/04/04 04:54:08;;;;;;;2.45;2.08;;;;;;;17.81;32.86;101277.34;5137271;27;20072;-66
2022/04/04 04:56:34;;;;;;;2.22;2.03;;;;;;;17.82;32.97;101266.09;5118530;27;20031;-65
2022/04/04 04:59:00;;;;;;;2.42;2.22;;;;;;;17.82;32.86;101273.50;5117968;27;20058;-66
2022/04/04 05:01:25;;;;;;;2.38;2.10;;;;;;;17.79;32.86;101261.13;5136797;27;20028;-66
2022/04/04 05:03:51;;;;;;;2.10;2.00;;;;;;;17.81;33.09;101258.94;5137084;27;20031;-65
2022/04/04 05:06:16;;;;;;;2.38;2.10;;;;;;;17.79;33.05;101258.38;5137042;27;20071;-66
2022/04/04 05:08:42;;;;;;;2.70;2.50;;;;;;;17.79;33.01;101257.53;5136742;27;20042;-66
2022/04/04 05:11:07;;;;;;;2.75;1.92;;;;;;;17.78;32.86;101244.91;5136380;27;20038;-66
2022/04/04 05:13:32;;;;;;;2.17;1.98;;;;;;;17.77;32.79;101235.84;5136595;27;20039;-66
2022/04/04 05:15:58;;;;;;;2.47;2.28;;;;;;;17.77;33.14;101238.56;5118503;27;20474;-66
2022/04/04 05:18:24;;;;;;;2.25;2.10;;;;;;;17.76;32.94;101234.19;5118219;27;20063;-66
2022/04/04 05:20:50;;;;;;;3.25;2.05;;;;;;;17.77;32.90;101233.09;5136230;27;20421;-66
2022/04/04 05:23:16;;;;;;;3.45;2.22;;;;;;;17.76;32.81;101222.38;5136402;27;20049;-66
2022/04/04 05:25:42;;;;;;;2.80;2.30;;;;;;;17.76;32.91;101214.97;5136100;27;20080;-65
2022/04/04 05:28:08;;;;;;;2.50;2.30;;;;;;;17.76;33.01;101209.50;5136263;27;20031;-66
2022/04/04 05:30:34;;;;;;;2.65;2.33;;;;;;;17.76;32.92;101205.91;5135958;27;20113;-65
2022/04/04 05:33:00;;;;;;;2.60;2.40;;;;;;;17.76;32.98;101200.41;5136325;27;20055;-65
2022/04/04 05:35:26;;;;;;;2.78;2.50;;;;;;;17.75;32.99;101193.28;5136172;27;20473;-66
2022/04/04 05:37:54;;;;;;;2.63;2.38;;;;;;;17.74;33.09;101189.69;5135990;27;20043;-65
2022/04/04 05:40:20;;;;;;;2.53;2.33;;;;;;;17.75;32.86;101194.09;5135693;27;20386;-65
2022/04/04 05:42:46;;;;;;;3.55;2.50;;;;;;;17.76;32.65;101183.94;5135277;27;20395;-66
2022/04/04 05:45:12;;;;;;;3.15;2.40;;;;;;;17.75;32.89;101183.13;5117657;27;20035;-67
2022/04/04 05:47:37;;;;;;;2.45;2.25;;;;;;;17.76;33.15;101183.94;5135520;27;20042;-66
2022/04/04 05:50:03;;;;;;;3.38;2.25;;;;;;;17.66;32.74;101185.47;5117104;27;20027;-65
2022/04/04 05:52:29;;;;;;;4.22;2.88;;;;;;;17.36;32.72;101181.25;5135953;27;20035;-65
2022/04/04 05:54:54;;;;;;;4.40;3.38;;;;;;;17.00;32.87;101172.47;5135764;27;20083;-66
2022/04/04 05:57:24;;;;;;;4.15;3.33;;;;;;;16.71;33.58;101171.75;5135474;27;20078;-66
2022/04/04 05:59:50;;;;;;;5.57;3.47;;;;;;;16.41;33.60;101169.28;5135662;27;20463;-66
2022/04/04 06:02:16;;;;;;;5.82;3.97;;;;;;;16.14;33.91;101180.84;5117220;27;20031;-64
2022/04/04 06:04:41;;;;;;;7.38;4.13;;;;;;;15.86;34.20;101182.50;5117355;27;20087;-65
2022/04/04 06:07:07;;;;;;;6.03;4.10;;;;;;;15.78;34.70;101158.25;5129283;27;20035;-66
2022/04/04 06:09:32;;;;;;;5.57;3.78;;;;;;;15.89;34.88;101140.16;5117188;27;20027;-67
2022/04/04 06:11:57;;;;;;;5.78;4.10;;;;;;;16.07;34.62;101148.13;5117036;27;20061;-67
2022/04/04 06:14:23;;;;;;;6.10;3.70;;;;;;;16.23;34.53;101141.06;5135805;27;20032;-65
2022/04/04 06:16:48;;;;;;;4.50;3.60;;;;;;;16.42;34.37;101143.59;5116792;27;20386;-66
2022/04/04 06:19:14;;;;;;;4.53;3.28;;;;;;;16.57;35.05;101138.34;5135000;27;20135;-66
2022/04/04 06:21:39;;;;;;;3.88;3.47;;;;;;;16.74;35.16;101130.16;5122833;27;20067;-70
2022/04/04 06:24:05;;;;;;;5.07;3.55;;;;;;;16.90;35.54;101120.25;5107918;28;20024;-68
2022/04/04 06:26:31;;;;;;;6.03;3.83;;;;;;;17.06;34.85;101131.47;5125876;27;20466;-65
2022/04/04 06:28:57;;;;;;;4.60;3.42;;;;;;;17.15;35.11;101125.28;5131586;27;20081;-65
2022/04/04 06:31:22;;;;;;;5.65;3.35;;;;;;;17.23;34.57;101121.28;5132104;27;20031;-66
2022/04/04 06:33:48;;;;;;;4.07;3.50;;;;;;;17.28;34.42;101109.56;5134811;27;20527;-66
2022/04/04 06:36:13;;;;;;;4.90;3.58;;;;;;;17.34;34.19;101109.34;5135075;27;20122;-66
2022/04/04 06:38:39;;;;;;;4.40;3.30;;;;;;;17.40;34.53;101109.44;5115204;27;20391;-66
2022/04/04 06:41:04;;;;;;;3.10;2.80;;;;;;;17.44;34.58;101102.38;5113934;28;20027;-65
2022/04/04 06:43:30;;;;;;;4.25;3.00;;;;;;;17.48;34.17;101100.75;5114461;28;20031;-66
2022/04/04 06:45:56;;;;;;;4.70;3.42;;;;;;;17.51;34.26;101081.06;5096382;28;20042;-67
2022/04/04 06:48:23;;;;;;;6.25;3.20;;;;;;;17.54;34.02;101081.38;5114367;28;20062;-67
2022/04/04 06:50:49;;;;;;;4.72;3.20;;;;;;;17.57;34.01;101071.81;5113871;28;20061;-67
2022/04/04 06:53:15;;;;;;;4.05;2.70;;;;;;;17.59;33.85;101083.31;5114113;28;20066;-66
2022/04/04 06:55:40;;;;;;;6.75;3.20;;;;;;;17.61;34.10;101074.84;5096148;28;20055;-65
2022/04/04 06:58:06;;;;;;;4.07;2.92;;;;;;;17.66;34.78;101074.91;5114112;28;20052;-65
2022/04/04 07:00:31;;;;;;;3.47;2.70;;;;;;;17.71;34.83;101062.06;5114972;28;20035;-65
2022/04/04 07:02:58;;;;;;;6.13;2.92;;;;;;;17.82;35.16;101065.75;5114203;28;20399;-66
2022/04/04 07:05:24;;;;;;;7.20;3.10;;;;;;;17.95;34.67;101052.72;5114128;28;20089;-65
2022/04/04 07:07:50;;;;;;;3.72;2.70;;;;;;;18.06;34.41;101047.06;5114189;28;20098;-65
2022/04/04 07:10:15;;;;;;;4.47;2.58;;;;;;;18.19;34.61;101050.50;5114049;28;20068;-66
2022/04/04 07:12:44;;;;;;;4.03;2.70;;;;;;;18.30;34.51;101043.97;5096046;28;20035;-66
2022/04/04 07:15:11;;;;;;;6.60;2.67;;;;;;;18.40;34.42;101043.22;5079609;28;20032;-65
2022/04/04 07:17:38;;;;;;;2.90;2.25;;;;;;;18.50;34.09;101036.97;5095944;28;20085;-65
2022/04/04 07:20:05;;;;;;;2.72;2.13;;;;;;;18.57;34.21;101019.19;5113494;28;20118;-66
2022/04/04 07:22:35;;;;;;;4.57;2.55;;;;;;;18.67;33.84;101018.41;5113929;28;20028;-65
2022/04/04 07:25:01;;;;;;;3.75;2.38;;;;;;;18.73;33.40;101003.63;5118356;28;20031;-65
2022/04/04 07:27:27;;;;;;;4.90;2.60;;;;;;;18.81;33.50;101002.28;5131263;28;20035;-66
2022/04/04 07:29:53;;;;;;;2.80;2.33;;;;;;;18.83;33.63;100991.00;5134447;28;20066;-65
2022/04/04 07:32:18;;;;;;;2.50;2.15;;;;;;;18.90;33.94;100999.88;5115909;28;20088;-65
2022/04/04 07:34:43;;;;;;;3.47;2.15;;;;;;;18.97;33.46;100999.63;5134158;28;20031;-67
2022/04/04 07:37:09;;;;;;;2.22;2.05;;;;;;;19.03;33.38;100999.38;5116092;28;20478;-67
2022/04/04 07:39:34;;;;;;;5.07;2.30;;;;;;;19.05;32.81;100991.69;5134705;28;20088;-68
2022/04/04 07:41:59;;;;;;;5.25;2.08;;;;;;;19.07;33.37;100994.16;5134376;28;20455;-68
2022/04/04 07:44:25;;;;;;;5.85;2.20;;;;;;;19.11;33.70;101001.59;5134293;28;20088;-67
2022/04/04 07:46:51;;;;;;;4.03;2.13;;;;;;;19.15;33.27;100976.31;5134384;28;20049;-68
2022/04/04 07:49:17;;;;;;;5.32;2.08;;;;;;;19.21;32.83;100978.81;5134323;28;20063;-68
2022/04/04 07:51:42;;;;;;;2.55;2.10;;;;;;;19.25;32.80;100968.09;5133742;28;20458;-68
2022/04/04 07:54:08;;;;;;;4.68;2.50;;;;;;;19.26;32.99;100969.75;5115749;28;20518;-67
2022/04/04 07:56:33;;;;;;;5.55;2.05;;;;;;;19.26;32.68;100962.31;5116273;28;20071;-67
2022/04/04 07:58:58;;;;;;;3.95;2.30;;;;;;;19.27;32.76;100949.41;5115862;28;20062;-66
2022/04/04 08:01:24;;;;;;;6.18;2.38;;;;;;;19.31;33.00;100957.94;5133706;28;20087;-66
2022/04/04 08:03:49;;;;;;;4.22;2.38;;;;;;;19.35;32.75;100940.59;5104058;28;20385;-67
2022/04/04 08:06:14;;;;;;;5.05;2.38;;;;;;;19.38;32.53;100942.00;5121657;27;20111;-67
2022/04/04 08:08:40;;;;;;;3.80;2.20;;;;;;;19.39;32.40;100938.97;5127640;27;20038;-67
2022/04/04 08:11:08;;;;;;;4.53;2.20;;;;;;;19.43;33.06;100929.09;5107512;27;20474;-66
2022/04/04 08:13:33;;;;;;;3.25;2.00;;;;;;;19.46;33.26;100936.78;5108302;27;20051;-66
2022/04/04 08:16:00;;;;;;;2.42;1.90;;;;;;;19.51;32.79;100919.47;5117340;28;20063;-67
2022/04/04 08:18:26;;;;;;;4.93;1.90;;;;;;;19.55;32.59;100915.06;5099023;28;20062;-66
2022/04/04 08:20:52;;;;;;;2.95;1.85;;;;;;;19.58;32.23;100914.50;5116578;28;20031;-66
2022/04/04 08:23:17;;;;;;;4.05;2.03;;;;;;;19.60;32.13;100908.72;5116971;28;20456;-66
2022/04/04 08:25:42;;;;;;;2.70;1.90;;;;;;;19.60;32.38;100904.03;5117267;28;20127;-66
2022/04/04 08:28:09;;;;;;;4.55;2.30;;;;;;;19.61;32.73;100893.88;5116801;28;20036;-67
2022/04/04 08:30:34;;;;;;;2.58;1.90;;;;;;;19.66;32.49;100901.31;5117180;28;20399;-67
2022/04/04 08:33:01;;;;;;;4.28;1.95;;;;;;;19.68;32.42;100893.59;5116608;28;20061;-67
2022/04/04 08:35:26;;;;;;;4.22;1.80;;;;;;;19.70;31.82;100894.16;5116523;28;20049;-66
2022/04/04 08:37:51;;;;;;;3.95;2.30;;;;;;;19.70;31.66;100894.97;5099933;27;20526;-66
2022/04/04 08:40:18;;;;;;;6.00;1.95;;;;;;;19.73;31.94;100882.59;5123553;27;20032;-66
2022/04/04 08:42:45;;;;;;;2.80;1.90;;;;;;;19.75;31.66;100877.63;5116832;28;20330;-66
2022/04/04 08:45:11;;;;;;;1.98;1.80;;;;;;;19.79;31.51;100876.81;5116610;28;20023;-66
2022/04/04 08:47:38;;;;;;;3.22;2.10;;;;;;;19.82;31.46;100872.69;5098795;28;20031;-66
2022/04/04 08:50:04;;;;;;;3.10;2.05;;;;;;;19.83;31.23;100860.59;5098419;28;20032;-66
2022/04/04 08:52:30;;;;;;;6.95;2.03;;;;;;;19.85;31.13;100861.13;5098207;28;20051;-67
2022/04/04 08:54:55;;;;;;;7.05;2.33;;;;;;;19.84;31.45;100864.97;5098293;28;20066;-66
2022/04/04 08:57:21;;;;;;;2.33;1.75;;;;;;;19.84;31.58;100844.88;5098253;28;20088;-67
2022/04/04 08:59:47;;;;;;;4.47;1.92;;;;;;;19.85;31.28;100854.81;5129527;27;20080;-66
2022/04/04 09:02:13;;;;;;;5.97;2.10;;;;;;;19.87;31.17;100841.56;5118802;27;20038;-67
2022/04/04 09:04:40;;;;;;;7.35;2.20;;;;;;;19.86;31.04;100849.03;5118396;27;20035;-67
2022/04/04 09:07:08;;;;;;;3.55;2.08;;;;;;;19.88;31.18;100849.56;5136393;27;20399;-67
2022/04/04 09:09:40;;;;;;;3.17;2.05;;;;;;;19.89;31.29;100847.66;5136660;27;20038;-66
2022/04/04 09:12:13;;;;;;;;;;;;;;;19.90;31.63;100847.38;5137074;27;20027;-66
2022/04/04 09:14:58;;;;;;;4.63;1.83;;;;;;;19.89;31.25;100844.91;5118292;27;19912;-67
2022/04/04 09:17:29;;;;;;;3.65;2.08;;;;;;;19.90;31.01;100830.00;5117954;27;20027;-67
2022/04/04 09:19:55;;;;;;;4.55;1.80;;;;;;;19.92;30.67;100822.31;5135906;27;20032;-66
2022/04/04 09:22:21;;;;;;;3.53;2.22;;;;;;;19.92;30.52;100825.88;5136393;27;20031;-66
2022/04/04 09:24:48;;;;;;;4.60;2.05;;;;;;;19.91;30.62;100821.47;5136245;27;20110;-66
2022/04/04 09:27:23;;;;;;;3.55;1.90;;;;;;;19.91;30.88;100815.16;5136321;27;20088;-66
2022/04/04 09:29:51;;;;;;;5.40;2.00;;;;;;;19.91;30.70;100806.88;5136265;27;20110;-67
2022/04/04 09:32:17;;;;;;;2.38;1.88;;;;;;;19.93;30.70;100811.00;5136267;27;20027;-66
2022/04/04 09:35:01;;;;;;;3.40;1.92;;;;;;;19.96;30.96;100806.84;5135929;27;20076;-66
2022/04/04 09:37:29;;;;;;;2.20;1.83;;;;;;;19.96;30.68;100810.47;5136008;27;20053;-67
2022/04/04 09:40:05;;;;;;;3.17;2.03;;;;;;;19.99;30.95;100789.81;5136123;27;20023;-66
2022/04/04 09:42:32;;;;;;;3.95;2.03;;;;;;;20.01;31.04;100806.03;5135799;27;20024;-66
2022/04/04 09:45:03;;;;;;;4.47;1.98;;;;;;;20.00;31.04;100804.38;5135909;27;20031;-66
2022/04/04 09:48:08;;;;;;;3.35;2.08;;;;;;;20.04;31.27;100806.28;5135821;27;20055;-66
2022/04/04 09:50:45;;;;;;;2.97;2.15;;;;;;;20.03;31.26;100799.13;5032064;28;20033;-66
2022/04/04 09:53:16;;;;;;;1.90;1.70;;;;;;;20.06;31.01;100793.06;5114793;27;20048;-66
2022/04/04 09:56:03;;;;;;;3.00;1.98;;;;;;;20.08;31.38;100793.63;5114996;28;20095;-67
2022/04/04 09:58:30;;;;;;;5.00;2.13;;;;;;;20.05;31.20;100791.44;5114502;28;20056;-66
2022/04/04 10:00:58;;;;;;;3.55;1.80;;;;;;;20.02;31.05;100782.88;5114848;28;20051;-66
2022/04/04 10:03:24;;;;;;;3.97;1.80;;;;;;;20.03;31.36;100779.84;5096782;28;20485;-67
2022/04/04 10:05:54;;;;;;;3.85;1.92;;;;;;;20.06;31.41;100781.22;5096931;28;20456;-66
2022/04/04 10:08:22;;;;;;;3.72;1.95;;;;;;;20.07;31.48;100775.44;5096842;28;20067;-66
2022/04/04 10:10:49;;;;;;;3.00;1.75;;;;;;;20.07;31.39;100783.69;5114948;28;20031;-66
2022/04/04 10:13:16;;;;;;;4.35;2.10;;;;;;;20.08;31.62;100770.78;5114641;28;20223;-66
2022/04/04 10:15:43;;;;;;;5.72;2.10;;;;;;;20.08;31.79;100771.59;5118965;27;20087;-67
2022/04/04 10:18:10;;;;;;;1.92;1.77;;;;;;;20.07;31.88;100766.38;5135456;27;20031;-66
2022/04/04 10:20:36;;;;;;;1.58;1.48;;;;;;;20.07;31.75;100767.19;5116515;27;20034;-65
2022/04/04 10:23:03;;;;;;;3.13;1.90;;;;;;;20.12;32.37;100764.41;5135262;27;20438;-65
2022/04/04 10:25:31;;;;;;;2.22;2.00;;;;;;;20.15;32.50;100768.50;5135288;27;20466;-65
2022/04/04 10:27:59;;;;;;;3.58;2.08;;;;;;;20.14;32.65;100762.19;5116417;27;20031;-66
2022/04/04 10:30:30;;;;;;;2.55;2.03;;;;;;;20.15;32.84;100765.75;5135166;27;20419;-65
2022/04/04 10:32:56;;;;;;;2.15;1.85;;;;;;;20.15;33.27;100760.25;5135259;27;20033;-65
2022/04/04 10:35:23;;;;;;;2.80;1.95;;;;;;;20.17;33.28;100760.81;5135545;27;20389;-65
2022/04/04 10:37:50;;;;;;;2.30;1.90;;;;;;;20.19;33.06;100752.28;5134945;27;20524;-65
2022/04/04 10:40:27;;;;;;;2.10;1.90;;;;;;;20.21;33.25;100766.56;5116603;27;20054;-66
2022/04/04 10:43:07;;;;;;;3.83;1.90;;;;;;;20.23;33.27;100756.94;5135162;27;20031;-65
2022/04/04 10:45:52;;;;;;;2.10;1.60;;;;;;;20.24;33.23;100760.50;5135033;27;20024;-65
2022/04/04 10:48:19;;;;;;;2.67;1.90;;;;;;;20.20;33.63;100760.25;5135092;27;20367;-65
2022/04/04 10:50:45;;;;;;;3.22;1.73;;;;;;;20.23;33.71;100758.88;5116060;28;20042;-65
2022/04/04 10:53:10;;;;;;;2.00;1.90;;;;;;;20.24;33.58;100753.06;5116640;28;20028;-65
2022/04/04 10:55:36;;;;;;;2.75;2.00;;;;;;;20.24;33.84;100754.97;5116380;28;20038;-65
2022/04/04 10:58:11;;;;;;;2.88;1.95;;;;;;;20.27;33.84;100747.00;5115818;28;20051;-66
2022/04/04 11:01:05;;;;;;;2.80;1.75;;;;;;;20.29;33.91;100741.19;5134788;28;20027;-66
2022/04/04 11:03:39;;;;;;;2.42;1.70;;;;;;;20.28;34.22;100731.28;5134807;28;20156;-67
2022/04/04 11:09:15;;;;;;;2.17;1.80;;;;;;;20.35;34.44;100739.25;5134732;28;20096;-66
2022/04/04 11:11:50;;;;;;;2.17;1.80;;;;;;;20.35;34.06;100725.47;5134650;28;20034;-66
2022/04/04 11:14:18;;;;;;;1.70;1.60;;;;;;;20.33;34.51;100723.81;5116601;28;20030;-66
2022/04/04 11:17:05;;;;;;;1.80;1.70;;;;;;;20.36;34.40;100721.59;5116199;28;20542;-66
2022/04/04 11:19:44;;;;;;;2.03;1.60;;;;;;;20.35;34.35;100726.28;5134241;28;20086;-66
2022/04/04 11:22:13;;;;;;;4.32;2.10;;;;;;;20.37;34.52;100720.50;5134871;28;20031;-66
2022/04/04 11:24:38;;;;;;;2.67;1.70;;;;;;;20.37;34.69;100707.53;5134226;28;20023;-67
2022/04/04 11:27:04;;;;;;;4.50;1.70;;;;;;;20.37;34.73;100713.03;5116212;28;20030;-66
2022/04/04 11:29:29;;;;;;;1.75;1.65;;;;;;;20.37;34.73;100717.72;5134213;28;20061;-66
2022/04/04 11:31:55;;;;;;;2.47;1.50;;;;;;;20.35;34.92;100707.00;5116363;28;20413;-66